createdAt,value
2022-11-07T00:02:05.215Z,73.08
2022-11-07T00:04:33.184Z,73.61
2022-11-07T00:07:01.588Z,72.57
2022-11-07T00:09:29.362Z,75.10
2022-11-07T00:11:57.598Z,74.99
2022-11-07T00:14:26.791Z,75.74
2022-11-07T00:16:54.675Z,73.42
2022-11-07T00:19:22.564Z,74.37
2022-11-07T00:21:50.690Z,73.45
2022-11-07T00:24:19.099Z,74.04
2022-11-07T00:26:47.861Z,74.63
2022-11-07T00:29:17.672Z,73.70
2022-11-07T00:31:45.909Z,73.79
2022-11-07T00:34:13.975Z,73.36
2022-11-07T00:36:42.112Z,72.84
2022-11-07T00:39:10.523Z,71.81
2022-11-07T00:41:38.418Z,74.46
2022-11-07T00:44:06.456Z,72.77
2022-11-07T00:46:34.302Z,73.57
2022-11-07T00:49:02.308Z,74.88
2022-11-07T00:51:30.163Z,76.31
2022-11-07T00:53:58.076Z,74.16
2022-11-07T00:56:26.252Z,74.60
2022-11-07T00:58:59.092Z,74.14
2022-11-07T01:01:29.719Z,74.93
2022-11-07T01:04:16.184Z,74.56
2022-11-07T01:06:45.686Z,74.98
2022-11-07T01:09:17.391Z,74.34
2022-11-07T01:11:46.001Z,75.39
2022-11-07T01:14:16.422Z,74.69
2022-11-07T01:16:44.611Z,75.76
2022-11-07T01:19:12.377Z,76.95
2022-11-07T01:21:41.821Z,75.98
2022-11-07T01:24:11.165Z,76.59
2022-11-07T01:26:39.966Z,75.87
2022-11-07T01:29:08.153Z,75.61
2022-11-07T01:31:36.302Z,75.90
2022-11-07T01:34:04.198Z,76.96
2022-11-07T01:36:32.519Z,75.88
2022-11-07T01:39:00.750Z,75.98
2022-11-07T01:41:32.085Z,75.06
2022-11-07T01:44:08.700Z,76.26
2022-11-07T01:46:38.773Z,75.66
2022-11-07T01:49:36.593Z,75.80
2022-11-07T01:52:12.272Z,76.53
2022-11-07T01:54:52.298Z,76.66
2022-11-07T01:57:29.489Z,76.91
2022-11-07T02:00:01.149Z,76.12
2022-11-07T02:02:29.325Z,76.59
2022-11-07T02:04:59.932Z,77.53
2022-11-07T02:07:29.447Z,78.58
2022-11-07T02:09:57.350Z,79.06
2022-11-07T02:12:26.649Z,80.24
2022-11-07T02:14:56.153Z,78.27
2022-11-07T02:17:23.971Z,77.84
2022-11-07T02:19:56.794Z,78.91
2022-11-07T02:22:36.871Z,79.59
2022-11-07T02:25:09.306Z,78.71
2022-11-07T02:27:39.393Z,79.30
2022-11-07T02:30:19.937Z,80.45
2022-11-07T02:32:48.812Z,79.67
2022-11-07T02:35:35.296Z,80.88
2022-11-07T02:38:14.317Z,80.24
2022-11-07T02:40:44.670Z,78.87
2022-11-07T02:43:16.008Z,78.92
2022-11-07T02:45:46.535Z,78.08
2022-11-07T02:48:14.317Z,78.86
2022-11-07T02:50:43.087Z,78.99
2022-11-07T02:53:11.035Z,79.37
2022-11-07T02:55:39.245Z,80.46
2022-11-07T02:58:07.150Z,80.62
2022-11-07T03:00:35.126Z,80.24
2022-11-07T03:03:02.950Z,80.77
2022-11-07T03:05:30.739Z,80.25
2022-11-07T03:08:01.278Z,78.86
2022-11-07T03:10:29.080Z,78.77
2022-11-07T03:12:56.964Z,78.89
2022-11-07T03:15:24.798Z,79.84
2022-11-07T03:17:52.628Z,79.64
2022-11-07T03:20:20.404Z,79.65
2022-11-07T03:22:48.220Z,81.81
2022-11-07T03:25:15.976Z,81.33
2022-11-07T03:27:50.649Z,83.42
2022-11-07T03:30:18.607Z,84.29
2022-11-07T03:32:46.473Z,85.18
2022-11-07T03:35:14.347Z,85.29
2022-11-07T03:37:45.599Z,84.96
2022-11-07T03:40:14.250Z,86.31
2022-11-07T03:42:46.123Z,86.15
2022-11-07T03:45:15.821Z,85.46
2022-11-07T03:47:45.200Z,85.20
2022-11-07T03:50:15.995Z,84.68
2022-11-07T03:52:44.480Z,85.34
2022-11-07T03:55:16.122Z,86.45
2022-11-07T03:57:44.900Z,88.08
2022-11-07T04:00:14.408Z,87.52
2022-11-07T04:02:42.870Z,86.82
2022-11-07T04:05:11.526Z,86.37
2022-11-07T04:07:39.332Z,85.23
2022-11-07T04:10:07.413Z,84.57
2022-11-07T04:12:53.636Z,84.48
2022-11-07T04:15:39.955Z,84.67
2022-11-07T04:18:07.818Z,84.48
2022-11-07T04:20:35.660Z,85.53
2022-11-07T04:23:03.466Z,84.95
2022-11-07T04:25:49.721Z,85.01
2022-11-07T04:28:18.078Z,87.15
2022-11-07T04:30:46.053Z,87.77
2022-11-07T04:33:14.196Z,86.91
2022-11-07T04:35:42.230Z,86.37
2022-11-07T04:38:10.083Z,87.00
2022-11-07T04:40:37.881Z,87.20
2022-11-07T04:43:09.404Z,86.56
2022-11-07T04:45:40.620Z,85.51
2022-11-07T04:48:11.016Z,86.05
2022-11-07T04:50:39.634Z,85.68
2022-11-07T04:53:07.474Z,85.54
2022-11-07T04:55:35.249Z,85.44
2022-11-07T04:58:06.061Z,85.83
2022-11-07T05:00:34.163Z,86.64
2022-11-07T05:03:02.157Z,86.62
2022-11-07T05:05:29.992Z,86.87
2022-11-07T05:07:57.795Z,87.55
2022-11-07T05:10:27.917Z,87.07
2022-11-07T05:12:56.761Z,87.43
2022-11-07T05:15:24.705Z,88.18
2022-11-07T05:17:52.663Z,88.10
2022-11-07T05:20:35.570Z,87.96
2022-11-07T05:23:15.540Z,87.58
2022-11-07T05:25:51.557Z,87.48
2022-11-07T05:28:30.000Z,87.76
2022-11-07T05:31:04.220Z,87.56
2022-11-07T05:33:33.091Z,87.87
2022-11-07T05:36:15.362Z,87.53
2022-11-07T05:38:45.535Z,87.85
2022-11-07T05:41:15.027Z,88.13
2022-11-07T05:43:43.395Z,87.72
2022-11-07T05:46:11.947Z,88.03
2022-11-07T05:48:40.024Z,88.83
2022-11-07T05:51:08.829Z,88.79
2022-11-07T05:53:36.839Z,89.53
2022-11-07T05:56:04.988Z,88.92
2022-11-07T05:58:32.842Z,88.30
2022-11-07T06:01:02.704Z,88.46
2022-11-07T06:03:31.517Z,89.17
2022-11-07T06:06:00.014Z,88.05
2022-11-07T06:08:28.000Z,87.50
2022-11-07T06:10:55.747Z,87.12
2022-11-07T06:13:23.521Z,87.50
2022-11-07T06:15:52.159Z,87.87
2022-11-07T06:18:21.531Z,85.54
2022-11-07T06:20:49.986Z,82.95
2022-11-07T06:23:18.365Z,79.28
2022-11-07T06:25:46.625Z,77.95
2022-11-07T06:28:15.310Z,79.03
2022-11-07T06:30:44.477Z,80.96
2022-11-07T06:33:15.911Z,82.52
2022-11-07T06:35:44.432Z,84.12
2022-11-07T06:38:13.712Z,85.98
2022-11-07T06:40:42.812Z,84.15
2022-11-07T06:43:19.817Z,84.50
2022-11-07T06:45:48.350Z,84.03
2022-11-07T06:48:16.306Z,82.88
2022-11-07T06:50:44.056Z,82.89
2022-11-07T06:53:14.106Z,82.51
2022-11-07T06:55:42.466Z,81.01
2022-11-07T06:58:10.249Z,80.38
2022-11-07T07:00:38.175Z,79.80
2022-11-07T07:03:06.317Z,79.64
2022-11-07T07:05:34.996Z,79.53
2022-11-07T07:08:04.529Z,77.66
2022-11-07T07:10:36.500Z,77.14
2022-11-07T07:13:04.242Z,77.72
2022-11-07T07:15:49.383Z,75.81
2022-11-07T07:18:19.205Z,74.45
2022-11-07T07:20:48.694Z,74.17
2022-11-07T07:23:18.266Z,72.86
2022-11-07T07:25:47.335Z,72.82
2022-11-07T07:28:15.134Z,71.73
2022-11-07T07:30:47.172Z,70.20
2022-11-07T07:33:18.604Z,71.03
2022-11-07T07:35:47.089Z,70.72
2022-11-07T07:38:14.984Z,69.94
2022-11-07T07:40:42.731Z,70.35
2022-11-07T07:43:10.468Z,71.74
2022-11-07T07:45:38.335Z,71.59
2022-11-07T07:48:06.386Z,70.94
2022-11-07T07:50:34.247Z,70.00
2022-11-07T07:53:07.764Z,69.75
2022-11-07T07:55:37.151Z,68.17
2022-11-07T07:58:04.952Z,67.75
2022-11-07T08:00:32.857Z,67.14
2022-11-07T08:03:05.782Z,66.99
2022-11-07T08:05:33.621Z,65.83
2022-11-07T08:08:01.532Z,66.88
2022-11-07T08:10:44.637Z,65.65
2022-11-07T08:13:12.541Z,64.61
2022-11-07T08:15:40.830Z,63.87
2022-11-07T08:18:08.602Z,65.25
2022-11-07T08:20:36.346Z,64.03
2022-11-07T08:23:11.279Z,62.30
2022-11-07T08:25:59.222Z,62.44
2022-11-07T08:28:30.183Z,62.25
2022-11-07T08:31:04.347Z,60.35
2022-11-07T08:33:32.612Z,59.38
2022-11-07T08:36:02.021Z,59.93
2022-11-07T08:38:31.269Z,58.21
2022-11-07T08:40:59.576Z,57.81
2022-11-07T08:43:27.901Z,56.82
2022-11-07T08:45:56.068Z,59.24
2022-11-07T08:48:24.061Z,56.60
2022-11-07T08:50:56.678Z,57.32
2022-11-07T08:53:26.324Z,56.84
2022-11-07T08:56:02.147Z,55.17
2022-11-07T08:58:30.585Z,56.53
2022-11-07T09:00:58.923Z,53.37
2022-11-07T09:06:15.138Z,53.96
2022-11-07T09:08:43.629Z,52.27
2022-11-07T09:11:11.623Z,49.01
2022-11-07T09:13:39.671Z,47.51
2022-11-07T09:16:07.756Z,48.26
2022-11-07T09:18:35.732Z,47.74
2022-11-07T09:21:03.715Z,48.51
2022-11-07T09:23:31.666Z,47.11
2022-11-07T09:26:01.148Z,49.09
2022-11-07T09:28:29.601Z,48.38
2022-11-07T09:30:59.376Z,48.25
2022-11-07T09:33:28.044Z,47.62
2022-11-07T09:35:59.471Z,47.45
2022-11-07T09:38:27.687Z,46.85
2022-11-07T09:41:11.025Z,48.60
2022-11-07T09:44:05.316Z,46.97
2022-11-07T09:47:14.771Z,46.50
2022-11-07T09:49:49.853Z,48.13
2022-11-07T09:52:38.653Z,47.96
2022-11-07T09:55:35.654Z,47.90
2022-11-07T09:58:10.012Z,47.28
2022-11-07T10:00:37.891Z,46.18
2022-11-07T10:03:05.815Z,47.30
2022-11-07T10:05:58.979Z,46.90
2022-11-07T10:08:40.221Z,44.46
2022-11-07T10:11:30.986Z,46.66
2022-11-07T10:14:01.659Z,47.60
2022-11-07T10:16:35.094Z,47.70
2022-11-07T10:19:14.607Z,45.71
2022-11-07T10:21:54.275Z,44.80
2022-11-07T10:24:37.037Z,47.18
2022-11-07T10:27:10.478Z,46.89
2022-11-07T10:29:52.727Z,46.24
2022-11-07T10:32:42.547Z,47.82
2022-11-07T10:35:13.276Z,45.96
2022-11-07T10:37:41.083Z,46.93
2022-11-07T10:40:19.773Z,46.54
2022-11-07T10:42:49.313Z,46.35
2022-11-07T10:45:18.333Z,46.09
2022-11-07T10:48:03.388Z,48.88
2022-11-07T10:50:31.640Z,47.90
2022-11-07T10:53:01.929Z,44.81
2022-11-07T10:55:42.164Z,44.50
2022-11-07T10:58:21.833Z,44.52
2022-11-07T11:01:05.942Z,46.36
2022-11-07T11:03:44.818Z,47.06
2022-11-07T11:06:19.018Z,48.85
2022-11-07T11:08:49.104Z,44.15
2022-11-07T11:11:33.248Z,44.23
2022-11-07T11:14:11.526Z,45.09
2022-11-07T11:16:42.171Z,44.77
2022-11-07T11:19:23.479Z,43.54
2022-11-07T11:21:54.989Z,44.49
2022-11-07T11:24:37.458Z,43.02
2022-11-07T11:27:17.846Z,44.05
2022-11-07T11:30:02.327Z,43.83
2022-11-07T11:32:37.525Z,43.72
2022-11-07T11:35:24.391Z,42.85
2022-11-07T11:37:59.016Z,45.42
2022-11-07T11:40:33.609Z,43.85
2022-11-07T11:43:12.024Z,45.18
2022-11-07T11:45:39.894Z,43.79
2022-11-07T11:48:18.225Z,44.22
2022-11-07T11:50:51.388Z,44.02
2022-11-07T11:53:22.110Z,43.94
2022-11-07T11:56:08.086Z,45.26
2022-11-07T11:58:41.718Z,45.53
2022-11-07T12:01:37.221Z,46.28
2022-11-07T12:04:30.244Z,44.27
2022-11-07T12:07:08.300Z,45.71
2022-11-07T12:09:45.886Z,44.86
2022-11-07T12:12:25.826Z,42.18
2022-11-07T12:15:19.756Z,43.93
2022-11-07T12:18:12.657Z,44.38
2022-11-07T12:21:12.556Z,41.95
2022-11-07T12:24:01.673Z,43.01
2022-11-07T12:26:58.017Z,42.13
2022-11-07T12:29:47.394Z,42.53
2022-11-07T12:32:45.876Z,43.27
2022-11-07T12:35:32.164Z,45.51
2022-11-07T12:38:26.733Z,44.32
2022-11-07T12:41:17.440Z,45.57
2022-11-07T12:44:08.157Z,44.99
2022-11-07T12:47:00.343Z,42.70
2022-11-07T12:49:40.229Z,42.62
2022-11-07T12:52:29.020Z,41.65
2022-11-07T12:55:16.837Z,42.46
2022-11-07T12:57:47.288Z,42.79
2022-11-07T13:00:29.611Z,43.08
2022-11-07T13:03:10.386Z,44.97
2022-11-07T13:05:44.198Z,44.31
2022-11-07T13:08:22.654Z,45.36
2022-11-07T13:10:53.750Z,45.40
2022-11-07T13:13:43.934Z,45.36
2022-11-07T13:16:23.946Z,46.19
2022-11-07T13:18:52.557Z,46.20
2022-11-07T13:21:22.560Z,47.42
2022-11-07T13:24:12.693Z,45.94
2022-11-07T13:26:47.814Z,46.82
2022-11-07T13:29:37.945Z,45.26
2022-11-07T13:32:12.747Z,47.21
2022-11-07T13:34:59.732Z,46.93
2022-11-07T13:37:33.136Z,46.95
2022-11-07T13:40:25.596Z,46.24
2022-11-07T13:43:03.045Z,47.32
2022-11-07T13:45:43.402Z,47.43
2022-11-07T13:48:26.067Z,47.30
2022-11-07T13:51:06.226Z,46.87
2022-11-07T13:53:56.088Z,46.07
2022-11-07T13:56:29.914Z,45.53
2022-11-07T13:59:00.702Z,46.31
2022-11-07T14:01:41.526Z,46.52
2022-11-07T14:04:18.601Z,46.60
2022-11-07T14:06:50.826Z,46.26
2022-11-07T14:09:21.320Z,47.60
2022-11-07T14:11:52.851Z,47.10
2022-11-07T14:14:26.014Z,45.60
2022-11-07T14:17:00.505Z,46.60
2022-11-07T14:19:30.406Z,46.86
2022-11-07T14:21:58.283Z,47.26
2022-11-07T14:24:29.705Z,46.90
2022-11-07T14:27:00.100Z,46.33
2022-11-07T14:29:28.974Z,46.46
2022-11-07T14:32:02.475Z,48.68
2022-11-07T14:34:34.823Z,47.29
2022-11-07T14:37:06.806Z,47.77
2022-11-07T14:39:35.377Z,48.79
2022-11-07T14:42:04.275Z,48.35
2022-11-07T14:47:32.204Z,50.39
2022-11-07T14:50:02.156Z,47.56
2022-11-07T14:52:37.075Z,48.97
2022-11-07T14:55:17.890Z,49.13
2022-11-07T14:57:45.961Z,49.51
2022-11-07T15:00:16.731Z,47.86
2022-11-07T15:02:47.191Z,49.10
2022-11-07T15:05:25.257Z,49.75
2022-11-07T15:07:56.566Z,50.66
2022-11-07T15:10:41.466Z,51.37
2022-11-07T15:13:25.253Z,51.87
2022-11-07T15:16:08.187Z,52.13
2022-11-07T15:18:41.883Z,52.87
2022-11-07T15:21:38.386Z,53.17
2022-11-07T15:24:36.095Z,53.51
2022-11-07T15:27:25.822Z,54.12
2022-11-07T15:29:59.086Z,54.31
2022-11-07T15:32:35.390Z,54.52
2022-11-07T15:35:42.387Z,54.99
2022-11-07T15:38:02.488Z,55.11
2022-11-07T15:40:30.453Z,55.52
2022-11-07T15:42:58.605Z,55.18
2022-11-07T15:45:26.729Z,55.53
2022-11-07T15:47:54.648Z,55.75
2022-11-07T15:50:24.975Z,56.11
2022-11-07T15:52:54.097Z,56.40
2022-11-07T15:55:24.662Z,56.57
2022-11-07T15:57:54.276Z,57.11
2022-11-07T16:00:26.287Z,57.31
2022-11-07T16:02:54.517Z,57.49
2022-11-07T16:05:22.655Z,57.69
2022-11-07T16:07:50.623Z,58.42
2022-11-07T16:10:18.528Z,58.12
2022-11-07T16:12:46.551Z,58.54
2022-11-07T16:15:16.779Z,59.72
2022-11-07T16:17:45.057Z,60.09
2022-11-07T16:20:18.256Z,60.12
2022-11-07T16:22:47.386Z,60.78
2022-11-07T16:25:21.853Z,60.70
2022-11-07T16:27:56.063Z,62.44
2022-11-07T16:30:25.570Z,63.88
2022-11-07T16:32:53.517Z,62.83
2022-11-07T16:35:21.879Z,64.38
2022-11-07T16:37:49.969Z,65.70
2022-11-07T16:40:19.884Z,66.49
2022-11-07T16:42:47.805Z,66.33
2022-11-07T16:45:17.953Z,67.01
2022-11-07T16:47:45.788Z,67.94
2022-11-07T16:50:16.369Z,68.47
2022-11-07T16:52:44.237Z,69.23
2022-11-07T16:55:17.564Z,68.70
2022-11-07T16:57:46.292Z,68.61
2022-11-07T17:00:19.766Z,69.52
2022-11-07T17:02:47.932Z,69.72
2022-11-07T17:05:16.046Z,69.62
2022-11-07T17:07:43.994Z,70.38
2022-11-07T17:10:17.515Z,71.28
2022-11-07T17:12:45.557Z,71.28
2022-11-07T17:15:13.471Z,72.43
2022-11-07T17:20:48.728Z,73.09
2022-11-07T17:23:09.817Z,73.17
2022-11-07T17:25:38.756Z,73.64
2022-11-07T17:28:07.349Z,73.88
2022-11-07T17:30:35.353Z,74.27
2022-11-07T17:33:03.564Z,74.51
2022-11-07T17:35:33.334Z,75.71
2022-11-07T17:38:01.982Z,74.65
2022-11-07T17:40:34.408Z,74.63
2022-11-07T17:43:02.540Z,75.24
2022-11-07T17:45:30.496Z,75.43
2022-11-07T17:47:58.458Z,75.41
2022-11-07T17:50:26.367Z,76.11
2022-11-07T17:52:54.142Z,76.77
2022-11-07T17:55:22.056Z,77.24
2022-11-07T17:57:50.354Z,78.24
2022-11-07T18:00:22.014Z,78.00
2022-11-07T18:02:52.312Z,77.64
2022-11-07T18:05:22.728Z,77.75
2022-11-07T18:07:50.650Z,77.69
2022-11-07T18:10:18.765Z,77.65
2022-11-07T18:12:46.721Z,77.99
2022-11-07T18:15:14.562Z,78.52
2022-11-07T18:17:45.044Z,78.38
2022-11-07T18:20:12.970Z,78.24
2022-11-07T18:22:40.990Z,78.62
2022-11-07T18:25:09.321Z,79.12
2022-11-07T18:27:37.285Z,79.65
2022-11-07T18:30:06.333Z,78.92
2022-11-07T18:32:36.478Z,80.10
2022-11-07T18:35:06.325Z,80.26
2022-11-07T18:37:36.454Z,78.91
2022-11-07T18:40:04.991Z,79.58
2022-11-07T18:42:32.743Z,79.12
2022-11-07T18:45:00.546Z,79.17
2022-11-07T18:47:29.937Z,79.77
2022-11-07T18:49:57.837Z,79.99
2022-11-07T18:52:26.097Z,80.84
2022-11-07T18:54:54.370Z,80.35
2022-11-07T18:57:22.235Z,81.98
2022-11-07T18:59:53.231Z,81.21
2022-11-07T19:02:21.135Z,80.32
2022-11-07T19:04:49.116Z,81.28
2022-11-07T19:07:17.034Z,82.25
2022-11-07T19:09:44.863Z,81.36
2022-11-07T19:12:12.701Z,82.50
2022-11-07T19:14:40.638Z,81.60
2022-11-07T19:17:08.583Z,81.68
2022-11-07T19:19:36.586Z,82.05
2022-11-07T19:22:05.837Z,81.86
2022-11-07T19:24:34.446Z,81.89
2022-11-07T19:27:02.304Z,81.14
2022-11-07T19:29:30.624Z,82.29
2022-11-07T19:31:58.626Z,82.05
2022-11-07T19:34:27.051Z,81.43
2022-11-07T19:36:54.975Z,81.76
2022-11-07T19:39:23.093Z,81.61
2022-11-07T19:41:51.220Z,81.51
2022-11-07T19:44:19.109Z,82.10
2022-11-07T19:46:46.924Z,82.64
2022-11-07T19:49:14.681Z,82.87
2022-11-07T19:51:42.542Z,82.92
2022-11-07T19:54:10.431Z,83.70
2022-11-07T19:56:39.581Z,83.45
2022-11-07T19:59:07.540Z,83.38
2022-11-07T20:01:35.927Z,83.97
2022-11-07T20:04:04.203Z,83.83
2022-11-07T20:06:36.988Z,83.58
2022-11-07T20:09:09.850Z,83.05
2022-11-07T20:11:38.234Z,83.04
2022-11-07T20:14:06.621Z,83.05
2022-11-07T20:16:37.369Z,82.71
2022-11-07T20:19:07.298Z,83.61
2022-11-07T20:21:36.056Z,83.24
2022-11-07T20:24:08.133Z,83.46
2022-11-07T20:26:40.904Z,83.22
2022-11-07T20:29:11.410Z,83.52
2022-11-07T20:31:43.142Z,83.12
2022-11-07T20:34:16.543Z,83.61
2022-11-07T20:36:46.419Z,83.96
2022-11-07T20:39:15.049Z,84.02
2022-11-07T20:41:45.981Z,84.09
2022-11-07T20:44:15.680Z,83.47
2022-11-07T20:46:46.618Z,84.39
2022-11-07T20:49:18.123Z,83.96
2022-11-07T20:51:46.136Z,83.48
2022-11-07T20:54:15.525Z,82.89
2022-11-07T20:56:44.125Z,82.47
2022-11-07T20:59:12.241Z,83.51
2022-11-07T21:01:40.272Z,83.58
2022-11-07T21:04:11.238Z,84.47
2022-11-07T21:06:39.175Z,83.20
2022-11-07T21:09:07.791Z,83.25
2022-11-07T21:11:35.858Z,83.63
2022-11-07T21:14:03.980Z,83.47
2022-11-07T21:16:34.710Z,83.60
2022-11-07T21:19:05.140Z,84.11
2022-11-07T21:21:34.051Z,84.54
2022-11-07T21:24:02.209Z,86.03
2022-11-07T21:26:33.580Z,85.11
2022-11-07T21:29:06.068Z,86.33
2022-11-07T21:31:37.593Z,84.91
2022-11-07T21:34:07.175Z,87.01
2022-11-07T21:36:35.124Z,84.58
2022-11-07T21:39:03.893Z,83.86
2022-11-07T21:41:32.101Z,83.96
2022-11-07T21:44:00.103Z,83.31
2022-11-07T21:46:34.415Z,82.37
2022-11-07T21:49:02.599Z,83.30
2022-11-07T21:51:32.233Z,83.30
2022-11-07T21:54:03.815Z,83.52
2022-11-07T21:56:35.516Z,83.06
2022-11-07T21:59:06.796Z,83.87
2022-11-07T22:01:36.390Z,84.39
2022-11-07T22:04:11.129Z,83.11
2022-11-07T22:06:42.400Z,83.01
2022-11-07T22:09:13.672Z,83.12
2022-11-07T22:11:41.707Z,81.57
2022-11-07T22:14:13.850Z,82.46
2022-11-07T22:16:45.224Z,82.03
2022-11-07T22:19:13.669Z,81.80
2022-11-07T22:21:41.600Z,82.50
2022-11-07T22:24:10.035Z,81.34
2022-11-07T22:26:38.126Z,81.45
2022-11-07T22:29:06.169Z,82.02
2022-11-07T22:31:34.095Z,81.70
2022-11-07T22:34:02.651Z,82.35
2022-11-07T22:36:30.709Z,81.35
2022-11-07T22:38:58.944Z,81.83
2022-11-07T22:41:28.089Z,81.71
2022-11-07T22:43:57.481Z,83.08
2022-11-07T22:46:28.932Z,82.46
2022-11-07T22:49:00.164Z,83.77
2022-11-07T22:51:33.821Z,81.85
2022-11-07T22:54:11.317Z,81.72
2022-11-07T22:56:40.539Z,82.72
2022-11-07T22:59:10.676Z,82.43
2022-11-07T23:01:40.637Z,82.57
2022-11-07T23:04:13.983Z,84.00
2022-11-07T23:06:42.071Z,83.71
2022-11-07T23:09:15.435Z,83.01
2022-11-07T23:11:46.296Z,81.76
2022-11-07T23:14:18.363Z,82.51
2022-11-07T23:16:49.194Z,82.58
2022-11-07T23:19:20.408Z,82.31
2022-11-07T23:21:49.509Z,82.47
2022-11-07T23:24:17.956Z,82.20
2022-11-07T23:26:45.746Z,82.08
2022-11-07T23:29:16.710Z,82.65
2022-11-07T23:31:47.116Z,83.35
2022-11-07T23:34:15.873Z,83.30
2022-11-07T23:36:47.278Z,84.93
2022-11-07T23:39:17.833Z,84.17
2022-11-07T23:41:46.457Z,85.03
2022-11-07T23:44:15.602Z,84.58
2022-11-07T23:47:02.691Z,84.74
2022-11-07T23:49:36.762Z,84.62
2022-11-07T23:52:04.957Z,83.37
2022-11-07T23:54:52.367Z,83.97
2022-11-07T23:57:20.523Z,83.84
